sensor_id;sensor_type;location;lat;lon;timestamp;P1;durP1;ratioP1;P2;durP2;ratioP2
24567;SDS011;12731;52.182;8.716;2023-08-12T00:01:56;5.63;;;3.67;;
24567;SDS011;12731;52.182;8.716;2023-08-12T00:04:23;6.55;;;3.53;;
24567;SDS011;12731;52.182;8.716;2023-08-12T00:06:49;6.75;;;4.10;;
24567;SDS011;12731;52.182;8.716;2023-08-12T00:09:16;7.07;;;4.00;;
24567;SDS011;12731;52.182;8.716;2023-08-12T00:11:42;7.03;;;3.90;;
24567;SDS011;12731;52.182;8.716;2023-08-12T00:14:09;5.70;;;4.13;;
24567;SDS011;12731;52.182;8.716;2023-08-12T00:16:35;6.10;;;4.47;;
24567;SDS011;12731;52.182;8.716;2023-08-12T00:19:02;6.38;;;4.20;;
24567;SDS011;12731;52.182;8.716;2023-08-12T00:21:28;5.68;;;3.90;;
24567;SDS011;12731;52.182;8.716;2023-08-12T00:23:55;5.53;;;3.80;;
24567;SDS011;12731;52.182;8.716;2023-08-12T00:26:21;5.55;;;3.90;;
24567;SDS011;12731;52.182;8.716;2023-08-12T00:28:48;5.25;;;4.07;;
24567;SDS011;12731;52.182;8.716;2023-08-12T00:31:15;4.72;;;4.00;;
24567;SDS011;12731;52.182;8.716;2023-08-12T00:33:41;6.03;;;4.40;;
24567;SDS011;12731;52.182;8.716;2023-08-12T00:36:08;7.82;;;4.50;;
24567;SDS011;12731;52.182;8.716;2023-08-12T00:38:34;10.95;;;5.97;;
24567;SDS011;12731;52.182;8.716;2023-08-12T00:41:01;12.27;;;6.00;;
24567;SDS011;12731;52.182;8.716;2023-08-12T00:43:27;11.40;;;5.47;;
24567;SDS011;12731;52.182;8.716;2023-08-12T00:45:54;11.38;;;6.10;;
24567;SDS011;12731;52.182;8.716;2023-08-12T00:48:20;6.13;;;5.18;;
24567;SDS011;12731;52.182;8.716;2023-08-12T00:50:47;6.88;;;5.32;;
24567;SDS011;12731;52.182;8.716;2023-08-12T00:53:13;9.43;;;5.10;;
24567;SDS011;12731;52.182;8.716;2023-08-12T00:55:41;8.82;;;5.10;;
24567;SDS011;12731;52.182;8.716;2023-08-12T00:58:08;7.20;;;4.70;;
24567;SDS011;12731;52.182;8.716;2023-08-12T01:00:34;7.28;;;4.95;;
24567;SDS011;12731;52.182;8.716;2023-08-12T01:03:01;9.43;;;4.60;;
24567;SDS011;12731;52.182;8.716;2023-08-12T01:05:28;6.13;;;4.57;;
24567;SDS011;12731;52.182;8.716;2023-08-12T01:07:56;7.72;;;4.88;;
24567;SDS011;12731;52.182;8.716;2023-08-12T01:10:23;8.52;;;4.45;;
24567;SDS011;12731;52.182;8.716;2023-08-12T01:12:56;7.45;;;4.40;;
24567;SDS011;12731;52.182;8.716;2023-08-12T01:15:36;6.13;;;4.57;;
24567;SDS011;12731;52.182;8.716;2023-08-12T01:18:03;7.05;;;5.07;;
24567;SDS011;12731;52.182;8.716;2023-08-12T01:20:31;8.45;;;5.13;;
24567;SDS011;12731;52.182;8.716;2023-08-12T01:23:08;6.63;;;4.90;;
24567;SDS011;12731;52.182;8.716;2023-08-12T01:25:37;6.50;;;4.78;;
24567;SDS011;12731;52.182;8.716;2023-08-12T01:28:03;8.07;;;4.93;;
24567;SDS011;12731;52.182;8.716;2023-08-12T01:30:30;7.55;;;4.40;;
24567;SDS011;12731;52.182;8.716;2023-08-12T01:33:03;6.90;;;4.20;;
24567;SDS011;12731;52.182;8.716;2023-08-12T01:36:04;6.38;;;4.00;;
24567;SDS011;12731;52.182;8.716;2023-08-12T01:38:35;7.20;;;4.63;;
24567;SDS011;12731;52.182;8.716;2023-08-12T01:41:04;7.10;;;4.63;;
24567;SDS011;12731;52.182;8.716;2023-08-12T01:43:31;7.63;;;4.57;;
24567;SDS011;12731;52.182;8.716;2023-08-12T01:45:57;4.88;;;4.18;;
24567;SDS011;12731;52.182;8.716;2023-08-12T01:48:24;5.47;;;4.38;;
24567;SDS011;12731;52.182;8.716;2023-08-12T01:50:51;7.22;;;4.82;;
24567;SDS011;12731;52.182;8.716;2023-08-12T01:53:18;5.97;;;4.28;;
24567;SDS011;12731;52.182;8.716;2023-08-12T01:55:44;7.00;;;4.38;;
24567;SDS011;12731;52.182;8.716;2023-08-12T01:58:11;7.05;;;5.03;;
24567;SDS011;12731;52.182;8.716;2023-08-12T02:00:38;5.93;;;4.97;;
24567;SDS011;12731;52.182;8.716;2023-08-12T02:03:04;7.43;;;5.20;;
24567;SDS011;12731;52.182;8.716;2023-08-12T02:05:31;5.50;;;4.90;;
24567;SDS011;12731;52.182;8.716;2023-08-12T02:07:57;6.75;;;5.20;;
24567;SDS011;12731;52.182;8.716;2023-08-12T02:10:24;7.28;;;5.40;;
24567;SDS011;12731;52.182;8.716;2023-08-12T02:12:50;6.43;;;5.22;;
24567;SDS011;12731;52.182;8.716;2023-08-12T02:15:17;7.82;;;4.88;;
24567;SDS011;12731;52.182;8.716;2023-08-12T02:17:43;7.18;;;5.18;;
24567;SDS011;12731;52.182;8.716;2023-08-12T02:20:10;7.57;;;5.43;;
24567;SDS011;12731;52.182;8.716;2023-08-12T02:22:37;7.43;;;5.90;;
24567;SDS011;12731;52.182;8.716;2023-08-12T02:25:04;9.32;;;5.85;;
24567;SDS011;12731;52.182;8.716;2023-08-12T02:27:30;8.48;;;6.38;;
24567;SDS011;12731;52.182;8.716;2023-08-12T02:29:57;6.90;;;6.13;;
24567;SDS011;12731;52.182;8.716;2023-08-12T02:32:23;10.45;;;7.57;;
24567;SDS011;12731;52.182;8.716;2023-08-12T02:34:50;8.75;;;7.72;;
24567;SDS011;12731;52.182;8.716;2023-08-12T02:37:16;9.52;;;7.47;;
24567;SDS011;12731;52.182;8.716;2023-08-12T02:39:43;8.75;;;6.93;;
24567;SDS011;12731;52.182;8.716;2023-08-12T02:42:09;8.13;;;6.90;;
24567;SDS011;12731;52.182;8.716;2023-08-12T02:44:36;9.20;;;7.53;;
24567;SDS011;12731;52.182;8.716;2023-08-12T02:47:03;10.18;;;7.18;;
24567;SDS011;12731;52.182;8.716;2023-08-12T02:49:29;9.18;;;6.85;;
24567;SDS011;12731;52.182;8.716;2023-08-12T02:51:56;9.25;;;6.82;;
24567;SDS011;12731;52.182;8.716;2023-08-12T02:54:22;8.65;;;7.50;;
24567;SDS011;12731;52.182;8.716;2023-08-12T02:56:49;11.48;;;8.45;;
24567;SDS011;12731;52.182;8.716;2023-08-12T02:59:16;9.25;;;7.75;;
24567;SDS011;12731;52.182;8.716;2023-08-12T03:01:42;13.45;;;7.93;;
24567;SDS011;12731;52.182;8.716;2023-08-12T03:04:09;10.65;;;8.77;;
24567;SDS011;12731;52.182;8.716;2023-08-12T03:06:36;9.93;;;8.23;;
24567;SDS011;12731;52.182;8.716;2023-08-12T03:09:02;13.23;;;8.60;;
24567;SDS011;12731;52.182;8.716;2023-08-12T03:11:29;11.10;;;8.80;;
24567;SDS011;12731;52.182;8.716;2023-08-12T03:13:55;10.32;;;8.57;;
24567;SDS011;12731;52.182;8.716;2023-08-12T03:16:22;10.68;;;9.02;;
24567;SDS011;12731;52.182;8.716;2023-08-12T03:18:49;11.68;;;9.05;;
24567;SDS011;12731;52.182;8.716;2023-08-12T03:21:15;12.48;;;9.75;;
24567;SDS011;12731;52.182;8.716;2023-08-12T03:23:42;10.80;;;9.27;;
24567;SDS011;12731;52.182;8.716;2023-08-12T03:26:08;11.35;;;9.68;;
24567;SDS011;12731;52.182;8.716;2023-08-12T03:28:35;11.13;;;9.25;;
24567;SDS011;12731;52.182;8.716;2023-08-12T03:31:01;11.35;;;9.48;;
24567;SDS011;12731;52.182;8.716;2023-08-12T03:33:28;12.57;;;10.00;;
24567;SDS011;12731;52.182;8.716;2023-08-12T03:35:54;10.50;;;9.32;;
24567;SDS011;12731;52.182;8.716;2023-08-12T03:38:21;11.32;;;10.13;;
24567;SDS011;12731;52.182;8.716;2023-08-12T03:40:47;14.27;;;9.77;;
24567;SDS011;12731;52.182;8.716;2023-08-12T03:43:14;11.75;;;10.38;;
24567;SDS011;12731;52.182;8.716;2023-08-12T03:45:43;12.20;;;10.50;;
24567;SDS011;12731;52.182;8.716;2023-08-12T03:48:10;13.07;;;10.98;;
24567;SDS011;12731;52.182;8.716;2023-08-12T03:50:37;14.18;;;11.35;;
24567;SDS011;12731;52.182;8.716;2023-08-12T03:53:04;15.43;;;12.68;;
24567;SDS011;12731;52.182;8.716;2023-08-12T03:55:31;13.90;;;11.75;;
24567;SDS011;12731;52.182;8.716;2023-08-12T03:57:58;12.15;;;10.30;;
24567;SDS011;12731;52.182;8.716;2023-08-12T04:00:25;13.88;;;11.65;;
24567;SDS011;12731;52.182;8.716;2023-08-12T04:02:52;15.05;;;12.25;;
24567;SDS011;12731;52.182;8.716;2023-08-12T04:05:18;14.13;;;12.65;;
24567;SDS011;12731;52.182;8.716;2023-08-12T04:07:45;14.18;;;12.13;;
24567;SDS011;12731;52.182;8.716;2023-08-12T04:10:12;15.70;;;13.63;;
24567;SDS011;12731;52.182;8.716;2023-08-12T04:12:39;15.93;;;13.68;;
24567;SDS011;12731;52.182;8.716;2023-08-12T04:15:06;15.90;;;14.30;;
24567;SDS011;12731;52.182;8.716;2023-08-12T04:17:33;14.75;;;13.27;;
24567;SDS011;12731;52.182;8.716;2023-08-12T04:20:00;21.00;;;15.88;;
24567;SDS011;12731;52.182;8.716;2023-08-12T04:22:26;19.20;;;16.33;;
24567;SDS011;12731;52.182;8.716;2023-08-12T04:24:54;19.92;;;16.73;;
24567;SDS011;12731;52.182;8.716;2023-08-12T04:27:20;19.58;;;17.45;;
24567;SDS011;12731;52.182;8.716;2023-08-12T04:29:47;22.13;;;16.85;;
24567;SDS011;12731;52.182;8.716;2023-08-12T04:32:13;19.92;;;16.90;;
24567;SDS011;12731;52.182;8.716;2023-08-12T04:34:40;23.15;;;16.73;;
24567;SDS011;12731;52.182;8.716;2023-08-12T04:37:06;19.15;;;16.75;;
24567;SDS011;12731;52.182;8.716;2023-08-12T04:39:33;19.15;;;16.00;;
24567;SDS011;12731;52.182;8.716;2023-08-12T04:41:59;21.52;;;18.00;;
24567;SDS011;12731;52.182;8.716;2023-08-12T04:44:26;18.95;;;16.67;;
24567;SDS011;12731;52.182;8.716;2023-08-12T04:46:52;23.63;;;18.73;;
24567;SDS011;12731;52.182;8.716;2023-08-12T04:49:19;19.75;;;16.77;;
24567;SDS011;12731;52.182;8.716;2023-08-12T04:51:46;18.35;;;16.42;;
24567;SDS011;12731;52.182;8.716;2023-08-12T04:54:13;20.92;;;17.30;;
24567;SDS011;12731;52.182;8.716;2023-08-12T04:56:39;17.23;;;15.32;;
24567;SDS011;12731;52.182;8.716;2023-08-12T04:59:06;16.38;;;14.35;;
24567;SDS011;12731;52.182;8.716;2023-08-12T05:01:34;18.33;;;16.42;;
24567;SDS011;12731;52.182;8.716;2023-08-12T05:04:01;24.05;;;19.63;;
24567;SDS011;12731;52.182;8.716;2023-08-12T05:06:27;19.38;;;17.35;;
24567;SDS011;12731;52.182;8.716;2023-08-12T05:08:53;25.00;;;20.70;;
24567;SDS011;12731;52.182;8.716;2023-08-12T05:11:20;22.63;;;20.25;;
24567;SDS011;12731;52.182;8.716;2023-08-12T05:13:46;22.27;;;19.95;;
24567;SDS011;12731;52.182;8.716;2023-08-12T05:16:13;20.58;;;18.40;;
24567;SDS011;12731;52.182;8.716;2023-08-12T05:18:39;24.50;;;20.15;;
24567;SDS011;12731;52.182;8.716;2023-08-12T05:21:06;21.73;;;19.42;;
24567;SDS011;12731;52.182;8.716;2023-08-12T05:23:32;19.90;;;17.30;;
24567;SDS011;12731;52.182;8.716;2023-08-12T05:25:59;18.73;;;16.45;;
24567;SDS011;12731;52.182;8.716;2023-08-12T05:28:25;21.38;;;17.10;;
24567;SDS011;12731;52.182;8.716;2023-08-12T05:30:52;21.80;;;18.70;;
24567;SDS011;12731;52.182;8.716;2023-08-12T05:33:21;22.35;;;17.20;;
24567;SDS011;12731;52.182;8.716;2023-08-12T05:35:48;22.52;;;18.25;;
24567;SDS011;12731;52.182;8.716;2023-08-12T05:38:14;20.63;;;18.42;;
24567;SDS011;12731;52.182;8.716;2023-08-12T05:40:41;20.92;;;18.33;;
24567;SDS011;12731;52.182;8.716;2023-08-12T05:43:08;20.13;;;17.73;;
24567;SDS011;12731;52.182;8.716;2023-08-12T05:45:34;21.00;;;17.30;;
24567;SDS011;12731;52.182;8.716;2023-08-12T05:48:01;24.65;;;20.98;;
24567;SDS011;12731;52.182;8.716;2023-08-12T05:50:27;21.52;;;18.33;;
24567;SDS011;12731;52.182;8.716;2023-08-12T05:52:54;19.98;;;16.75;;
24567;SDS011;12731;52.182;8.716;2023-08-12T05:55:20;24.30;;;18.73;;
24567;SDS011;12731;52.182;8.716;2023-08-12T05:57:47;19.75;;;17.17;;
24567;SDS011;12731;52.182;8.716;2023-08-12T06:00:13;22.35;;;17.35;;
24567;SDS011;12731;52.182;8.716;2023-08-12T06:02:40;19.55;;;17.45;;
24567;SDS011;12731;52.182;8.716;2023-08-12T06:05:07;22.98;;;19.20;;
24567;SDS011;12731;52.182;8.716;2023-08-12T06:07:34;20.08;;;16.70;;
24567;SDS011;12731;52.182;8.716;2023-08-12T06:10:00;22.30;;;19.70;;
24567;SDS011;12731;52.182;8.716;2023-08-12T06:12:27;21.17;;;17.63;;
24567;SDS011;12731;52.182;8.716;2023-08-12T06:14:54;19.23;;;15.68;;
24567;SDS011;12731;52.182;8.716;2023-08-12T06:17:20;21.33;;;19.00;;
24567;SDS011;12731;52.182;8.716;2023-08-12T06:19:47;22.73;;;17.33;;
24567;SDS011;12731;52.182;8.716;2023-08-12T06:22:13;22.33;;;18.02;;
24567;SDS011;12731;52.182;8.716;2023-08-12T06:24:40;16.40;;;14.73;;
24567;SDS011;12731;52.182;8.716;2023-08-12T06:27:07;17.70;;;15.90;;
24567;SDS011;12731;52.182;8.716;2023-08-12T06:29:33;19.10;;;17.10;;
24567;SDS011;12731;52.182;8.716;2023-08-12T06:32:00;16.58;;;14.40;;
24567;SDS011;12731;52.182;8.716;2023-08-12T06:34:26;23.73;;;18.08;;
24567;SDS011;12731;52.182;8.716;2023-08-12T06:36:53;20.70;;;15.60;;
24567;SDS011;12731;52.182;8.716;2023-08-12T06:39:19;17.88;;;14.80;;
24567;SDS011;12731;52.182;8.716;2023-08-12T06:41:46;14.63;;;13.00;;
24567;SDS011;12731;52.182;8.716;2023-08-12T06:44:12;18.45;;;14.23;;
24567;SDS011;12731;52.182;8.716;2023-08-12T06:46:39;17.58;;;15.77;;
24567;SDS011;12731;52.182;8.716;2023-08-12T06:49:05;20.30;;;14.77;;
24567;SDS011;12731;52.182;8.716;2023-08-12T06:51:33;17.60;;;14.30;;
24567;SDS011;12731;52.182;8.716;2023-08-12T06:53:59;16.52;;;14.68;;
24567;SDS011;12731;52.182;8.716;2023-08-12T06:56:26;17.60;;;13.98;;
24567;SDS011;12731;52.182;8.716;2023-08-12T06:58:52;14.77;;;13.25;;
24567;SDS011;12731;52.182;8.716;2023-08-12T07:01:19;18.42;;;16.27;;
24567;SDS011;12731;52.182;8.716;2023-08-12T07:03:45;17.85;;;15.95;;
24567;SDS011;12731;52.182;8.716;2023-08-12T07:06:12;18.35;;;15.85;;
24567;SDS011;12731;52.182;8.716;2023-08-12T07:08:39;15.32;;;13.70;;
24567;SDS011;12731;52.182;8.716;2023-08-12T07:11:05;17.00;;;15.23;;
24567;SDS011;12731;52.182;8.716;2023-08-12T07:13:32;16.40;;;14.77;;
24567;SDS011;12731;52.182;8.716;2023-08-12T07:16:00;14.88;;;13.20;;
24567;SDS011;12731;52.182;8.716;2023-08-12T07:18:27;14.45;;;12.95;;
24567;SDS011;12731;52.182;8.716;2023-08-12T07:20:55;15.30;;;13.68;;
24567;SDS011;12731;52.182;8.716;2023-08-12T07:23:21;15.95;;;14.25;;
24567;SDS011;12731;52.182;8.716;2023-08-12T07:25:48;13.43;;;12.10;;
24567;SDS011;12731;52.182;8.716;2023-08-12T07:28:14;14.80;;;13.18;;
24567;SDS011;12731;52.182;8.716;2023-08-12T07:30:41;14.82;;;13.23;;
24567;SDS011;12731;52.182;8.716;2023-08-12T07:33:07;13.10;;;11.10;;
24567;SDS011;12731;52.182;8.716;2023-08-12T07:35:34;13.75;;;11.77;;
24567;SDS011;12731;52.182;8.716;2023-08-12T07:38:00;13.18;;;11.38;;
24567;SDS011;12731;52.182;8.716;2023-08-12T07:40:27;15.05;;;12.32;;
24567;SDS011;12731;52.182;8.716;2023-08-12T07:42:53;13.73;;;12.27;;
24567;SDS011;12731;52.182;8.716;2023-08-12T07:45:21;12.23;;;10.50;;
24567;SDS011;12731;52.182;8.716;2023-08-12T07:47:48;13.05;;;11.75;;
24567;SDS011;12731;52.182;8.716;2023-08-12T07:50:15;13.73;;;11.65;;
24567;SDS011;12731;52.182;8.716;2023-08-12T07:52:42;11.80;;;9.80;;
24567;SDS011;12731;52.182;8.716;2023-08-12T07:55:08;13.25;;;10.57;;
24567;SDS011;12731;52.182;8.716;2023-08-12T07:57:35;12.35;;;10.23;;
24567;SDS011;12731;52.182;8.716;2023-08-12T08:00:01;9.70;;;8.68;;
24567;SDS011;12731;52.182;8.716;2023-08-12T08:02:29;10.10;;;8.65;;
24567;SDS011;12731;52.182;8.716;2023-08-12T08:04:55;11.77;;;9.93;;
24567;SDS011;12731;52.182;8.716;2023-08-12T08:07:22;11.70;;;10.05;;
24567;SDS011;12731;52.182;8.716;2023-08-12T08:09:48;9.98;;;8.05;;
24567;SDS011;12731;52.182;8.716;2023-08-12T08:12:17;9.50;;;8.25;;
24567;SDS011;12731;52.182;8.716;2023-08-12T08:14:43;9.90;;;8.57;;
24567;SDS011;12731;52.182;8.716;2023-08-12T08:17:10;9.13;;;7.72;;
24567;SDS011;12731;52.182;8.716;2023-08-12T08:19:36;8.07;;;7.28;;
24567;SDS011;12731;52.182;8.716;2023-08-12T08:22:03;10.00;;;7.40;;
24567;SDS011;12731;52.182;8.716;2023-08-12T08:24:30;8.43;;;7.55;;
24567;SDS011;12731;52.182;8.716;2023-08-12T08:26:57;9.73;;;7.70;;
24567;SDS011;12731;52.182;8.716;2023-08-12T08:29:23;8.77;;;7.68;;
24567;SDS011;12731;52.182;8.716;2023-08-12T08:31:50;9.18;;;7.63;;
24567;SDS011;12731;52.182;8.716;2023-08-12T08:34:17;7.03;;;6.10;;
24567;SDS011;12731;52.182;8.716;2023-08-12T08:36:43;8.48;;;7.40;;
24567;SDS011;12731;52.182;8.716;2023-08-12T08:39:10;8.13;;;7.32;;
24567;SDS011;12731;52.182;8.716;2023-08-12T08:41:38;10.80;;;8.55;;
24567;SDS011;12731;52.182;8.716;2023-08-12T08:44:06;9.30;;;7.68;;
24567;SDS011;12731;52.182;8.716;2023-08-12T08:46:33;7.57;;;6.82;;
24567;SDS011;12731;52.182;8.716;2023-08-12T08:49:00;7.95;;;7.15;;
24567;SDS011;12731;52.182;8.716;2023-08-12T08:51:31;9.13;;;7.18;;
24567;SDS011;12731;52.182;8.716;2023-08-12T08:53:58;8.27;;;7.43;;
24567;SDS011;12731;52.182;8.716;2023-08-12T08:56:29;7.97;;;7.28;;
24567;SDS011;12731;52.182;8.716;2023-08-12T08:58:58;9.30;;;8.40;;
24567;SDS011;12731;52.182;8.716;2023-08-12T09:01:25;9.48;;;8.57;;
24567;SDS011;12731;52.182;8.716;2023-08-12T09:03:53;11.07;;;9.70;;
24567;SDS011;12731;52.182;8.716;2023-08-12T09:06:20;10.27;;;9.27;;
24567;SDS011;12731;52.182;8.716;2023-08-12T09:08:49;9.88;;;8.88;;
24567;SDS011;12731;52.182;8.716;2023-08-12T09:11:20;8.90;;;8.00;;
24567;SDS011;12731;52.182;8.716;2023-08-12T09:13:47;9.88;;;8.75;;
24567;SDS011;12731;52.182;8.716;2023-08-12T09:16:14;9.82;;;8.52;;
24567;SDS011;12731;52.182;8.716;2023-08-12T09:18:44;8.95;;;7.78;;
24567;SDS011;12731;52.182;8.716;2023-08-12T09:21:11;10.75;;;9.65;;
24567;SDS011;12731;52.182;8.716;2023-08-12T09:23:38;9.85;;;8.85;;
24567;SDS011;12731;52.182;8.716;2023-08-12T09:26:18;8.90;;;8.02;;
24567;SDS011;12731;52.182;8.716;2023-08-12T09:28:46;7.40;;;6.70;;
24567;SDS011;12731;52.182;8.716;2023-08-12T09:31:25;9.57;;;8.57;;
24567;SDS011;12731;52.182;8.716;2023-08-12T09:33:59;10.57;;;9.48;;
24567;SDS011;12731;52.182;8.716;2023-08-12T09:36:29;9.88;;;8.98;;
24567;SDS011;12731;52.182;8.716;2023-08-12T09:38:57;12.32;;;10.00;;
24567;SDS011;12731;52.182;8.716;2023-08-12T09:41:26;11.70;;;10.50;;
24567;SDS011;12731;52.182;8.716;2023-08-12T09:43:55;10.60;;;9.55;;
24567;SDS011;12731;52.182;8.716;2023-08-12T09:46:22;10.82;;;9.75;;
24567;SDS011;12731;52.182;8.716;2023-08-12T09:48:50;8.52;;;7.72;;
24567;SDS011;12731;52.182;8.716;2023-08-12T09:51:20;8.05;;;7.35;;
24567;SDS011;12731;52.182;8.716;2023-08-12T09:53:50;8.90;;;8.00;;
24567;SDS011;12731;52.182;8.716;2023-08-12T09:56:18;9.55;;;7.57;;
24567;SDS011;12731;52.182;8.716;2023-08-12T09:58:48;10.25;;;7.13;;
24567;SDS011;12731;52.182;8.716;2023-08-12T10:01:19;6.18;;;5.57;;
24567;SDS011;12731;52.182;8.716;2023-08-12T10:03:50;6.95;;;6.20;;
24567;SDS011;12731;52.182;8.716;2023-08-12T10:06:17;6.15;;;5.55;;
24567;SDS011;12731;52.182;8.716;2023-08-12T10:08:47;6.50;;;5.80;;
24567;SDS011;12731;52.182;8.716;2023-08-12T10:11:14;6.28;;;4.75;;
24567;SDS011;12731;52.182;8.716;2023-08-12T10:13:42;5.07;;;4.60;;
24567;SDS011;12731;52.182;8.716;2023-08-12T10:16:09;6.22;;;5.40;;
24567;SDS011;12731;52.182;8.716;2023-08-12T10:18:38;5.75;;;4.25;;
24567;SDS011;12731;52.182;8.716;2023-08-12T10:21:05;4.07;;;3.65;;
24567;SDS011;12731;52.182;8.716;2023-08-12T10:23:35;3.63;;;3.28;;
24567;SDS011;12731;52.182;8.716;2023-08-12T10:26:02;4.28;;;3.47;;
24567;SDS011;12731;52.182;8.716;2023-08-12T10:28:31;3.80;;;3.35;;
24567;SDS011;12731;52.182;8.716;2023-08-12T10:31:03;5.25;;;3.17;;
24567;SDS011;12731;52.182;8.716;2023-08-12T10:33:35;4.20;;;3.25;;
24567;SDS011;12731;52.182;8.716;2023-08-12T10:36:05;4.07;;;3.50;;
24567;SDS011;12731;52.182;8.716;2023-08-12T10:38:32;4.05;;;3.40;;
24567;SDS011;12731;52.182;8.716;2023-08-12T10:41:15;3.35;;;3.05;;
24567;SDS011;12731;52.182;8.716;2023-08-12T10:46:28;3.67;;;2.95;;
24567;SDS011;12731;52.182;8.716;2023-08-12T10:48:57;3.40;;;3.10;;
24567;SDS011;12731;52.182;8.716;2023-08-12T10:54:18;3.42;;;3.10;;
24567;SDS011;12731;52.182;8.716;2023-08-12T11:04:48;3.40;;;3.10;;
24567;SDS011;12731;52.182;8.716;2023-08-12T11:07:20;4.45;;;3.00;;
24567;SDS011;12731;52.182;8.716;2023-08-12T11:09:51;3.42;;;2.50;;
24567;SDS011;12731;52.182;8.716;2023-08-12T11:12:29;2.97;;;2.55;;
24567;SDS011;12731;52.182;8.716;2023-08-12T11:15:02;4.00;;;2.03;;
24567;SDS011;12731;52.182;8.716;2023-08-12T11:20:01;3.33;;;1.88;;
24567;SDS011;12731;52.182;8.716;2023-08-12T11:22:30;2.92;;;2.50;;
24567;SDS011;12731;52.182;8.716;2023-08-12T11:24:58;2.22;;;1.98;;
24567;SDS011;12731;52.182;8.716;2023-08-12T11:27:24;3.10;;;1.90;;
24567;SDS011;12731;52.182;8.716;2023-08-12T11:29:51;2.63;;;2.10;;
24567;SDS011;12731;52.182;8.716;2023-08-12T11:32:18;2.20;;;1.83;;
24567;SDS011;12731;52.182;8.716;2023-08-12T11:34:45;2.90;;;1.65;;
24567;SDS011;12731;52.182;8.716;2023-08-12T11:37:12;2.42;;;1.70;;
24567;SDS011;12731;52.182;8.716;2023-08-12T11:39:38;2.50;;;1.48;;
24567;SDS011;12731;52.182;8.716;2023-08-12T11:42:05;1.77;;;1.60;;
24567;SDS011;12731;52.182;8.716;2023-08-12T11:44:31;2.35;;;1.77;;
24567;SDS011;12731;52.182;8.716;2023-08-12T11:46:58;1.58;;;1.45;;
24567;SDS011;12731;52.182;8.716;2023-08-12T11:49:24;2.80;;;1.83;;
24567;SDS011;12731;52.182;8.716;2023-08-12T11:51:51;2.03;;;1.83;;
24567;SDS011;12731;52.182;8.716;2023-08-12T11:54:17;2.15;;;1.60;;
24567;SDS011;12731;52.182;8.716;2023-08-12T11:56:44;1.50;;;1.40;;
24567;SDS011;12731;52.182;8.716;2023-08-12T11:59:10;3.60;;;1.80;;
24567;SDS011;12731;52.182;8.716;2023-08-12T12:01:37;2.30;;;1.60;;
24567;SDS011;12731;52.182;8.716;2023-08-12T12:04:04;1.70;;;1.50;;
24567;SDS011;12731;52.182;8.716;2023-08-12T12:06:32;1.40;;;1.30;;
24567;SDS011;12731;52.182;8.716;2023-08-12T12:09:00;2.72;;;1.50;;
24567;SDS011;12731;52.182;8.716;2023-08-12T12:11:31;1.67;;;1.35;;
24567;SDS011;12731;52.182;8.716;2023-08-12T12:14:02;4.53;;;1.50;;
24567;SDS011;12731;52.182;8.716;2023-08-12T12:16:36;1.63;;;1.25;;
24567;SDS011;12731;52.182;8.716;2023-08-12T12:19:22;4.40;;;1.48;;
24567;SDS011;12731;52.182;8.716;2023-08-12T12:21:50;1.52;;;1.17;;
24567;SDS011;12731;52.182;8.716;2023-08-12T12:24:18;1.30;;;1.20;;
24567;SDS011;12731;52.182;8.716;2023-08-12T12:26:45;2.45;;;1.60;;
24567;SDS011;12731;52.182;8.716;2023-08-12T12:29:13;1.77;;;1.00;;
24567;SDS011;12731;52.182;8.716;2023-08-12T12:31:40;2.20;;;1.10;;
24567;SDS011;12731;52.182;8.716;2023-08-12T12:34:07;1.33;;;1.20;;
24567;SDS011;12731;52.182;8.716;2023-08-12T12:36:36;1.60;;;1.20;;
24567;SDS011;12731;52.182;8.716;2023-08-12T12:39:04;1.33;;;0.95;;
24567;SDS011;12731;52.182;8.716;2023-08-12T12:41:30;1.40;;;1.30;;
24567;SDS011;12731;52.182;8.716;2023-08-12T12:43:57;2.05;;;1.02;;
24567;SDS011;12731;52.182;8.716;2023-08-12T12:46:23;1.38;;;1.00;;
24567;SDS011;12731;52.182;8.716;2023-08-12T12:48:50;2.25;;;1.13;;
24567;SDS011;12731;52.182;8.716;2023-08-12T12:51:17;2.95;;;1.30;;
24567;SDS011;12731;52.182;8.716;2023-08-12T12:53:43;1.25;;;0.95;;
24567;SDS011;12731;52.182;8.716;2023-08-12T12:56:10;1.52;;;1.08;;
24567;SDS011;12731;52.182;8.716;2023-08-12T12:58:37;1.45;;;1.10;;
24567;SDS011;12731;52.182;8.716;2023-08-12T13:01:04;0.88;;;0.88;;
24567;SDS011;12731;52.182;8.716;2023-08-12T13:03:31;1.23;;;1.02;;
24567;SDS011;12731;52.182;8.716;2023-08-12T13:05:58;1.10;;;1.00;;
24567;SDS011;12731;52.182;8.716;2023-08-12T13:08:25;1.75;;;1.13;;
24567;SDS011;12731;52.182;8.716;2023-08-12T13:10:51;1.48;;;1.20;;
24567;SDS011;12731;52.182;8.716;2023-08-12T13:13:18;1.63;;;1.13;;
24567;SDS011;12731;52.182;8.716;2023-08-12T13:15:45;2.53;;;1.20;;
24567;SDS011;12731;52.182;8.716;2023-08-12T13:18:11;1.63;;;1.30;;
24567;SDS011;12731;52.182;8.716;2023-08-12T13:20:38;1.48;;;1.38;;
24567;SDS011;12731;52.182;8.716;2023-08-12T13:23:05;2.47;;;1.63;;
24567;SDS011;12731;52.182;8.716;2023-08-12T13:25:32;2.15;;;1.63;;
24567;SDS011;12731;52.182;8.716;2023-08-12T13:28:02;1.75;;;1.65;;
24567;SDS011;12731;52.182;8.716;2023-08-12T13:30:29;1.60;;;1.50;;
24567;SDS011;12731;52.182;8.716;2023-08-12T13:32:56;1.98;;;1.48;;
24567;SDS011;12731;52.182;8.716;2023-08-12T13:35:26;2.55;;;1.50;;
24567;SDS011;12731;52.182;8.716;2023-08-12T13:37:53;2.03;;;1.60;;
24567;SDS011;12731;52.182;8.716;2023-08-12T13:40:19;2.60;;;1.85;;
24567;SDS011;12731;52.182;8.716;2023-08-12T13:42:46;1.92;;;1.50;;
24567;SDS011;12731;52.182;8.716;2023-08-12T13:45:13;2.30;;;2.10;;
24567;SDS011;12731;52.182;8.716;2023-08-12T13:47:40;2.42;;;2.20;;
24567;SDS011;12731;52.182;8.716;2023-08-12T13:50:06;3.05;;;2.50;;
24567;SDS011;12731;52.182;8.716;2023-08-12T13:52:33;2.40;;;2.20;;
24567;SDS011;12731;52.182;8.716;2023-08-12T13:55:00;3.65;;;2.38;;
24567;SDS011;12731;52.182;8.716;2023-08-12T13:57:27;2.83;;;2.53;;
24567;SDS011;12731;52.182;8.716;2023-08-12T13:59:53;2.88;;;2.60;;
24567;SDS011;12731;52.182;8.716;2023-08-12T14:02:20;2.70;;;2.50;;
24567;SDS011;12731;52.182;8.716;2023-08-12T14:04:47;3.15;;;2.95;;
24567;SDS011;12731;52.182;8.716;2023-08-12T14:07:13;3.00;;;2.80;;
24567;SDS011;12731;52.182;8.716;2023-08-12T14:09:41;2.67;;;2.47;;
24567;SDS011;12731;52.182;8.716;2023-08-12T14:12:07;2.70;;;2.50;;
24567;SDS011;12731;52.182;8.716;2023-08-12T14:14:34;3.47;;;3.17;;
24567;SDS011;12731;52.182;8.716;2023-08-12T14:17:00;2.83;;;2.63;;
24567;SDS011;12731;52.182;8.716;2023-08-12T14:19:27;3.20;;;2.90;;
24567;SDS011;12731;52.182;8.716;2023-08-12T14:21:54;3.42;;;2.92;;
24567;SDS011;12731;52.182;8.716;2023-08-12T14:24:20;3.25;;;2.95;;
24567;SDS011;12731;52.182;8.716;2023-08-12T14:26:47;3.00;;;2.70;;
24567;SDS011;12731;52.182;8.716;2023-08-12T14:29:14;3.03;;;2.72;;
24567;SDS011;12731;52.182;8.716;2023-08-12T14:31:40;3.10;;;2.88;;
24567;SDS011;12731;52.182;8.716;2023-08-12T14:34:07;4.60;;;3.13;;
24567;SDS011;12731;52.182;8.716;2023-08-12T14:36:33;3.75;;;2.60;;
24567;SDS011;12731;52.182;8.716;2023-08-12T14:39:02;2.85;;;2.58;;
24567;SDS011;12731;52.182;8.716;2023-08-12T14:41:28;2.97;;;2.38;;
24567;SDS011;12731;52.182;8.716;2023-08-12T14:43:55;3.97;;;2.38;;
24567;SDS011;12731;52.182;8.716;2023-08-12T14:46:21;2.65;;;2.45;;
24567;SDS011;12731;52.182;8.716;2023-08-12T14:48:48;2.90;;;2.22;;
24567;SDS011;12731;52.182;8.716;2023-08-12T14:51:14;2.72;;;2.20;;
24567;SDS011;12731;52.182;8.716;2023-08-12T14:53:41;2.33;;;2.13;;
24567;SDS011;12731;52.182;8.716;2023-08-12T14:56:07;2.90;;;2.63;;